Time;durP1;ratioP1;P1;durP2;ratioP2;P2;SDS_P1;SDS_P2;PMS_P1;PMS_P2;Temp;Humidity;BMP_temperature;BMP_pressure;BME280_temperature;BME280_humidity;BME280_pressure;Samples;Min_cycle;Max_cycle;Signal;HPM_P1;HPM_P2
2021/10/19 00:01:11;;;;;;;41.33;19.65;;;;;;;8.97;72.73;100927.75;8435554;34;20173;-72
2021/10/19 00:06:15;;;;;;;36.70;19.10;;;;;;;9.02;72.84;100927.44;8433035;34;20686;-72
2021/10/19 00:11:18;;;;;;;40.97;21.05;;;;;;;8.93;73.12;100915.50;8430169;34;20172;-72
2021/10/19 00:16:22;;;;;;;38.58;19.63;;;;;;;9.01;73.15;100909.63;8426120;34;20270;-72
2021/10/19 00:21:25;;;;;;;38.60;19.80;;;;;;;9.02;73.30;100901.50;8426423;34;20436;-73
2021/10/19 00:26:28;;;;;;;38.67;19.58;;;;;;;9.09;73.01;100904.63;8426818;34;20442;-72
2021/10/19 00:31:33;;;;;;;39.20;19.30;;;;;;;9.11;73.04;100907.22;8427888;34;21116;-72
2021/10/19 00:36:36;;;;;;;39.25;19.75;;;;;;;9.14;73.14;100894.47;8427239;34;20201;-72
2021/10/19 00:41:39;;;;;;;35.22;18.73;;;;;;;9.20;72.90;100893.19;8430149;34;20197;-71
2021/10/19 00:46:44;;;;;;;34.25;17.83;;;;;;;9.25;73.10;100881.19;8442489;34;20331;-72
2021/10/19 00:51:47;;;;;;;31.73;16.30;;;;;;;9.27;73.13;100854.31;8446212;34;20181;-72
2021/10/19 00:56:53;;;;;;;37.85;17.60;;;;;;;9.32;73.08;100867.38;8444804;34;20296;-72
2021/10/19 01:01:57;;;;;;;32.05;15.95;;;;;;;9.44;72.79;100862.03;8445275;34;20285;-71
2021/10/19 01:07:02;;;;;;;31.50;16.88;;;;;;;9.48;72.84;100849.25;8439800;34;20432;-71
2021/10/19 01:12:07;;;;;;;29.67;15.73;;;;;;;9.55;73.12;100853.25;8431495;34;21623;-70
2021/10/19 01:17:12;;;;;;;29.83;14.93;;;;;;;9.63;72.71;100848.22;8431135;34;21026;-72
2021/10/19 01:22:17;;;;;;;28.77;14.77;;;;;;;9.72;72.78;100852.94;8407418;34;20509;-73
2021/10/19 01:27:20;;;;;;;26.90;14.38;;;;;;;9.94;72.29;100849.63;8431301;34;20971;-72
2021/10/19 01:32:24;;;;;;;28.13;14.85;;;;;;;10.07;72.16;100856.81;8431872;34;20450;-72
2021/10/19 01:37:28;;;;;;;26.48;15.38;;;;;;;10.20;71.92;100832.59;8431572;34;20873;-71
2021/10/19 01:42:35;;;;;;;27.40;14.02;;;;;;;10.28;71.65;100828.38;8439111;34;21113;-71
2021/10/19 01:47:37;;;;;;;24.65;14.57;;;;;;;10.22;72.15;100828.84;8444641;34;20429;-72
2021/10/19 01:52:43;;;;;;;28.40;13.55;;;;;;;10.23;72.04;100813.59;8449345;34;20518;-73
2021/10/19 01:57:46;;;;;;;22.27;12.30;;;;;;;10.39;71.86;100816.88;8451087;34;20186;-71
2021/10/19 02:02:49;;;;;;;22.98;12.45;;;;;;;10.77;70.92;100822.09;8452295;34;20154;-72
2021/10/19 02:07:54;;;;;;;16.35;10.63;;;;;;;11.17;69.05;100819.09;8453566;34;20544;-72
2021/10/19 02:12:57;;;;;;;18.85;11.00;;;;;;;11.38;68.57;100818.41;8425943;34;20200;-73
2021/10/19 02:18:00;;;;;;;18.73;11.80;;;;;;;11.56;67.88;100816.13;8446582;34;20189;-72
2021/10/19 02:23:05;;;;;;;27.40;14.90;;;;;;;11.48;67.99;100796.06;8445049;34;20426;-72
2021/10/19 02:28:08;;;;;;;28.90;17.10;;;;;;;10.97;68.97;100814.34;8444946;34;20488;-71
2021/10/19 02:33:11;;;;;;;31.35;16.27;;;;;;;10.66;70.01;100805.06;8441150;34;20506;-72
2021/10/19 02:38:16;;;;;;;29.45;16.90;;;;;;;10.51;71.02;100790.94;8430526;34;20428;-72
2021/10/19 02:43:19;;;;;;;32.08;17.90;;;;;;;10.37;71.58;100803.56;8440759;34;20165;-72
2021/10/19 02:48:23;;;;;;;36.85;18.40;;;;;;;10.36;72.27;100796.47;8405301;34;20408;-72
2021/10/19 02:53:27;;;;;;;31.83;16.92;;;;;;;10.30;72.56;100783.50;8428952;34;20421;-73
2021/10/19 02:58:30;;;;;;;32.78;16.35;;;;;;;10.28;72.87;100795.31;8426374;34;20751;-72
2021/10/19 03:03:33;;;;;;;33.15;18.27;;;;;;;10.32;73.19;100797.69;8429009;34;20834;-72
2021/10/19 03:08:38;;;;;;;29.45;16.00;;;;;;;10.39;73.20;100785.53;8430148;34;20539;-73
2021/10/19 03:13:41;;;;;;;31.17;15.93;;;;;;;10.44;73.21;100789.69;8430517;34;20168;-72
2021/10/19 03:18:50;;;;;;;28.27;15.77;;;;;;;10.47;73.31;100787.63;8445065;34;20145;-72
2021/10/19 03:23:54;;;;;;;30.80;15.50;;;;;;;10.53;73.42;100788.97;8420260;34;20150;-73
2021/10/19 03:28:57;;;;;;;27.00;15.80;;;;;;;10.58;73.12;100782.28;8444583;34;20434;-72
2021/10/19 03:34:00;;;;;;;25.10;13.05;;;;;;;10.64;73.66;100774.75;8423003;34;20443;-72
2021/10/19 03:39:05;;;;;;;21.65;12.80;;;;;;;10.86;73.24;100764.13;8433280;34;20414;-72
2021/10/19 03:44:08;;;;;;;22.10;11.43;;;;;;;11.10;72.59;100764.03;8432827;34;20150;-72
2021/10/19 03:49:11;;;;;;;18.10;10.77;;;;;;;11.41;71.17;100759.88;8431667;34;20189;-72
2021/10/19 03:54:15;;;;;;;18.02;10.18;;;;;;;11.65;70.39;100762.44;8432308;34;20863;-72
2021/10/19 03:59:18;;;;;;;16.42;10.70;;;;;;;11.80;69.80;100768.44;8430888;34;20434;-72
2021/10/19 04:04:22;;;;;;;16.83;11.43;;;;;;;11.88;69.38;100774.06;8431022;34;20509;-74
2021/10/19 04:09:27;;;;;;;15.68;9.95;;;;;;;11.99;68.95;100772.34;8431430;34;20469;-72
2021/10/19 04:14:30;;;;;;;18.33;9.82;;;;;;;11.98;69.53;100773.31;8433137;34;20241;-73
2021/10/19 04:19:33;;;;;;;15.80;9.98;;;;;;;12.02;68.78;100785.56;8431288;34;20750;-71
2021/10/19 04:24:37;;;;;;;15.80;9.57;;;;;;;11.83;69.47;100775.41;8406627;34;20798;-71
2021/10/19 04:29:40;;;;;;;19.20;10.47;;;;;;;11.88;69.57;100773.22;8431986;34;20930;-73
2021/10/19 04:34:43;;;;;;;17.63;9.55;;;;;;;11.77;70.04;100766.00;8425230;34;20395;-71
2021/10/19 04:39:48;;;;;;;15.10;8.65;;;;;;;11.78;70.04;100756.06;8419960;34;20486;-71
2021/10/19 04:44:51;;;;;;;16.88;10.32;;;;;;;11.76;70.35;100750.81;8410403;34;20670;-71
2021/10/19 04:49:55;;;;;;;19.42;10.45;;;;;;;11.75;70.37;100756.31;8424458;34;20157;-71
2021/10/19 04:54:59;;;;;;;15.75;9.43;;;;;;;11.67;70.74;100738.09;8430295;34;20208;-71
2021/10/19 05:00:05;;;;;;;14.55;9.60;;;;;;;11.81;70.13;100732.44;8432442;34;20256;-73
2021/10/19 05:05:09;;;;;;;16.30;10.32;;;;;;;11.75;70.45;100734.81;8425506;34;20224;-71
2021/10/19 05:10:14;;;;;;;15.38;10.95;;;;;;;11.84;70.39;100723.28;8423761;34;20146;-71
2021/10/19 05:15:17;;;;;;;16.98;10.30;;;;;;;11.87;70.16;100720.34;8427734;34;20215;-71
2021/10/19 05:20:20;;;;;;;17.60;9.63;;;;;;;11.83;70.44;100711.66;8438245;34;20329;-71
2021/10/19 05:25:25;;;;;;;15.00;9.15;;;;;;;11.85;70.55;100708.88;8446645;34;20578;-71
2021/10/19 05:30:28;;;;;;;16.08;10.35;;;;;;;11.93;70.54;100707.25;8447472;34;20186;-73
2021/10/19 05:35:31;;;;;;;13.98;9.52;;;;;;;12.01;70.72;100693.13;8423124;34;20160;-71
2021/10/19 05:40:36;;;;;;;15.32;9.77;;;;;;;12.14;70.59;100684.91;8449384;34;20177;-72
2021/10/19 05:45:39;;;;;;;14.10;9.38;;;;;;;12.24;70.36;100679.63;8450624;34;20216;-71
2021/10/19 05:50:42;;;;;;;12.88;8.90;;;;;;;12.30;70.66;100660.28;8450180;34;20141;-71
2021/10/19 05:55:46;;;;;;;14.82;9.48;;;;;;;12.32;70.67;100666.41;8446954;34;20608;-72
2021/10/19 06:00:49;;;;;;;14.95;8.90;;;;;;;12.26;71.49;100667.75;8434509;34;20361;-71
2021/10/19 06:05:56;;;;;;;16.05;9.77;;;;;;;12.39;70.65;100675.66;8443490;34;20284;-71
2021/10/19 06:11:00;;;;;;;13.13;9.40;;;;;;;12.28;70.70;100684.63;8438265;34;20215;-71
2021/10/19 06:16:04;;;;;;;14.13;9.75;;;;;;;12.45;70.42;100674.28;8433666;33;20414;-70
2021/10/19 06:21:08;;;;;;;14.40;9.40;;;;;;;12.44;70.40;100678.81;8424780;33;20320;-71
2021/10/19 06:26:12;;;;;;;13.02;8.45;;;;;;;12.45;70.67;100671.59;8457948;33;21102;-70
2021/10/19 06:31:15;;;;;;;15.35;9.15;;;;;;;12.43;70.71;100693.28;8479179;33;20451;-73
2021/10/19 06:36:18;;;;;;;17.00;11.05;;;;;;;12.40;71.31;100682.78;8472967;33;20419;-70
2021/10/19 06:41:23;;;;;;;15.32;10.07;;;;;;;12.51;71.05;100688.13;8447769;33;20489;-70
2021/10/19 06:46:27;;;;;;;15.90;9.57;;;;;;;12.53;71.15;100687.97;8436195;33;20435;-70
2021/10/19 06:51:31;;;;;;;14.60;8.93;;;;;;;12.37;71.55;100693.81;8425551;33;20165;-71
2021/10/19 06:56:35;;;;;;;14.88;9.60;;;;;;;12.51;71.57;100673.78;8428865;33;20205;-71
2021/10/19 07:01:38;;;;;;;14.38;9.85;;;;;;;12.66;71.10;100650.91;8434953;33;20428;-72
2021/10/19 07:06:41;;;;;;;17.75;10.70;;;;;;;12.70;71.24;100662.28;8448506;34;20931;-70
2021/10/19 07:11:46;;;;;;;16.98;10.88;;;;;;;12.68;71.58;100681.28;8448939;34;20354;-71
2021/10/19 07:16:49;;;;;;;17.98;12.77;;;;;;;12.54;73.15;100668.13;8451453;34;20624;-70
2021/10/19 07:21:53;;;;;;;17.45;12.13;;;;;;;12.29;75.20;100675.59;8449794;34;20896;-73
2021/10/19 07:26:57;;;;;;;14.25;8.85;;;;;;;12.24;75.87;100664.31;8443458;34;20168;-71
2021/10/19 07:32:01;;;;;;;11.13;7.70;;;;;;;12.27;76.21;100666.75;8435055;34;21158;-70
2021/10/19 07:37:04;;;;;;;12.23;8.27;;;;;;;12.14;76.94;100653.44;8425976;34;20530;-70
2021/10/19 07:42:09;;;;;;;18.20;10.65;;;;;;;12.10;77.65;100668.16;8435560;34;20564;-71
2021/10/19 07:47:12;;;;;;;15.93;9.65;;;;;;;12.23;77.67;100675.19;8430141;34;20497;-70
2021/10/19 07:52:16;;;;;;;16.55;9.65;;;;;;;12.07;78.64;100676.50;8431608;33;20177;-71
2021/10/19 07:57:20;;;;;;;18.60;10.75;;;;;;;12.13;79.01;100685.91;8428701;33;20249;-70
2021/10/19 08:02:23;;;;;;;21.50;12.40;;;;;;;12.11;79.00;100707.56;8431619;33;20433;-69
2021/10/19 08:07:26;;;;;;;16.77;11.38;;;;;;;12.05;79.27;100712.59;8432469;33;20483;-70
2021/10/19 08:12:31;;;;;;;15.70;10.63;;;;;;;11.98;80.35;100704.16;8454555;33;20418;-71
2021/10/19 08:17:34;;;;;;;12.88;9.55;;;;;;;11.80;81.70;100694.91;8451571;33;20153;-70
2021/10/19 08:22:37;;;;;;;39.83;22.30;;;;;;;11.51;83.26;100703.47;8470124;33;22061;-70
2021/10/19 08:27:44;;;;;;;17.27;10.90;;;;;;;11.48;84.90;100687.59;8460855;33;20431;-73
2021/10/19 08:32:50;;;;;;;18.60;11.80;;;;;;;11.47;85.28;100675.97;8437032;33;20919;-71
2021/10/19 08:37:54;;;;;;;18.92;12.57;;;;;;;11.43;85.84;100676.34;8447509;33;20994;-72
2021/10/19 08:43:01;;;;;;;16.92;11.35;;;;;;;11.46;86.23;100670.72;8467919;33;20300;-71
2021/10/19 08:48:07;;;;;;;16.40;10.00;;;;;;;11.55;86.13;100675.38;8457573;33;20232;-71
2021/10/19 08:53:12;;;;;;;20.13;11.93;;;;;;;11.52;86.45;100664.88;8463147;33;20413;-71
2021/10/19 08:58:17;;;;;;;23.77;14.40;;;;;;;11.57;86.49;100659.09;8458669;33;20528;-71
2021/10/19 09:03:22;;;;;;;19.63;12.13;;;;;;;11.70;86.74;100657.97;8458415;33;20196;-70
2021/10/19 09:08:26;;;;;;;21.85;14.18;;;;;;;11.79;86.93;100656.34;8455880;33;20191;-70
2021/10/19 09:13:30;;;;;;;17.30;11.65;;;;;;;11.92;86.87;100651.69;8452003;33;20240;-69
2021/10/19 09:18:33;;;;;;;18.25;13.27;;;;;;;11.91;87.01;100643.75;8430308;33;20500;-70
2021/10/19 09:23:36;;;;;;;19.52;11.07;;;;;;;12.07;87.44;100649.56;8446272;33;20425;-70
2021/10/19 09:28:41;;;;;;;15.35;10.18;;;;;;;12.12;87.29;100638.38;8432811;34;20426;-70
2021/10/19 09:33:45;;;;;;;18.10;11.65;;;;;;;12.12;87.29;100641.09;8433381;34;20138;-70
2021/10/19 09:38:49;;;;;;;14.38;10.00;;;;;;;12.17;87.69;100644.25;8433665;34;20300;-71
2021/10/19 09:43:53;;;;;;;20.60;14.80;;;;;;;12.32;87.43;100650.25;8433031;34;20165;-71
2021/10/19 09:48:58;;;;;;;14.95;8.68;;;;;;;12.34;87.34;100642.88;8432724;34;20911;-72
2021/10/19 09:54:02;;;;;;;11.38;8.32;;;;;;;12.46;87.15;100646.38;8432383;34;20500;-71
2021/10/19 09:59:08;;;;;;;11.77;7.90;;;;;;;12.60;86.77;100646.06;8432316;34;21957;-71
2021/10/19 10:04:11;;;;;;;11.98;7.97;;;;;;;12.52;86.18;100644.00;8432542;34;20192;-74
2021/10/19 10:09:15;;;;;;;22.48;11.88;;;;;;;12.68;85.67;100640.84;8429818;34;20461;-71
2021/10/19 10:14:19;;;;;;;13.88;9.13;;;;;;;12.80;85.42;100633.53;8425204;34;20143;-73
2021/10/19 10:19:22;;;;;;;11.45;6.90;;;;;;;12.91;84.90;100624.53;8451388;33;20332;-73
2021/10/19 10:24:31;;;;;;;15.98;9.48;;;;;;;12.85;84.09;100627.75;8477765;33;20437;-74
2021/10/19 10:29:42;;;;;;;11.73;8.85;;;;;;;12.70;83.68;100628.13;8480567;33;20437;-72
2021/10/19 10:34:45;;;;;;;20.38;12.77;;;;;;;12.73;83.62;100619.75;8481675;33;21046;-71
2021/10/19 10:39:48;;;;;;;15.57;10.02;;;;;;;12.90;83.50;100617.44;8483883;33;20449;-71
2021/10/19 10:44:53;;;;;;;19.40;13.98;;;;;;;13.25;82.81;100625.13;8484449;33;21180;-72
2021/10/19 10:49:57;;;;;;;8.75;6.45;;;;;;;13.11;82.95;100625.47;8478420;33;22034;-72
2021/10/19 10:55:00;;;;;;;10.85;7.10;;;;;;;12.99;83.44;100630.94;8455379;33;20418;-74
2021/10/19 11:00:07;;;;;;;10.93;7.28;;;;;;;13.18;83.74;100621.25;8481067;33;20422;-72
2021/10/19 11:05:15;;;;;;;6.60;5.32;;;;;;;13.11;83.86;100623.66;8480043;33;20425;-74
2021/10/19 11:10:19;;;;;;;8.00;6.07;;;;;;;13.05;84.30;100622.34;8482595;33;20421;-72
2021/10/19 11:15:24;;;;;;;10.43;8.75;;;;;;;13.26;83.80;100611.50;8478422;33;20180;-72
2021/10/19 11:20:28;;;;;;;13.48;8.52;;;;;;;13.08;85.00;100621.19;8476532;33;20176;-74
2021/10/19 11:25:31;;;;;;;11.10;7.47;;;;;;;13.24;85.24;100612.63;8480646;33;20189;-73
2021/10/19 11:30:37;;;;;;;9.85;7.47;;;;;;;13.25;85.26;100609.78;8478406;33;20219;-72
2021/10/19 11:35:40;;;;;;;13.73;8.93;;;;;;;13.38;84.87;100616.81;8476186;33;20973;-73
2021/10/19 11:40:43;;;;;;;12.25;8.82;;;;;;;13.35;85.08;100599.00;8449941;33;20438;-74
2021/10/19 11:45:49;;;;;;;11.07;7.27;;;;;;;13.26;85.43;100610.63;8426716;34;20448;-72
2021/10/19 11:50:52;;;;;;;8.52;6.80;;;;;;;13.18;86.25;100591.59;8426705;33;20425;-74
2021/10/19 11:55:56;;;;;;;11.27;8.07;;;;;;;13.09;87.78;100587.03;8469827;33;20429;-73
2021/10/19 12:01:01;;;;;;;11.73;8.10;;;;;;;13.23;87.78;100581.25;8481710;33;20191;-72
2021/10/19 12:06:11;;;;;;;12.50;8.30;;;;;;;13.25;87.84;100577.41;8473251;33;20476;-74
2021/10/19 12:11:14;;;;;;;11.55;8.65;;;;;;;13.24;88.11;100564.06;8489745;33;20428;-75
2021/10/19 12:16:19;;;;;;;42.42;31.65;;;;;;;13.28;87.90;100571.75;8495808;33;22014;-73
2021/10/19 12:21:22;;;;;;;11.63;7.03;;;;;;;13.22;88.75;100552.56;8490921;33;20421;-72
2021/10/19 12:26:30;;;;;;;9.35;6.65;;;;;;;13.22;87.85;100537.25;8490763;33;20931;-73
2021/10/19 12:31:35;;;;;;;9.00;7.43;;;;;;;13.18;88.48;100534.94;8491320;33;20424;-73
2021/10/19 12:36:39;;;;;;;22.40;14.18;;;;;;;13.11;89.28;100533.78;8484835;33;20141;-73
2021/10/19 12:41:45;;;;;;;11.57;8.02;;;;;;;13.19;89.68;100526.72;8485240;33;20550;-72
2021/10/19 12:46:50;;;;;;;6.70;5.50;;;;;;;13.17;89.91;100530.56;8467496;33;20149;-73
2021/10/19 12:51:53;;;;;;;6.70;5.50;;;;;;;13.21;90.06;100538.22;8427257;34;21823;-73
2021/10/19 12:56:56;;;;;;;6.97;5.43;;;;;;;13.15;90.14;100535.22;8429793;34;20360;-73
2021/10/19 13:02:02;;;;;;;7.22;4.95;;;;;;;13.25;89.98;100533.41;8431083;34;20534;-72
2021/10/19 13:07:05;;;;;;;6.65;5.55;;;;;;;13.19;90.04;100533.94;8421434;34;21134;-73
2021/10/19 13:12:08;;;;;;;5.95;5.32;;;;;;;13.34;89.62;100529.03;8432532;34;20426;-73
2021/10/19 13:17:13;;;;;;;6.20;5.57;;;;;;;13.28;90.09;100528.59;8426574;34;20431;-74
2021/10/19 13:22:16;;;;;;;7.60;5.93;;;;;;;13.39;89.61;100521.41;8442892;33;20219;-73
2021/10/19 13:27:19;;;;;;;5.65;4.95;;;;;;;13.33;89.91;100525.47;8485698;33;20153;-73
2021/10/19 13:32:23;;;;;;;5.28;4.72;;;;;;;13.44;90.17;100511.91;8488168;33;20184;-72
2021/10/19 13:37:26;;;;;;;8.27;6.13;;;;;;;13.43;90.21;100512.03;8487228;33;22456;-72
2021/10/19 13:42:30;;;;;;;4.82;4.43;;;;;;;13.47;90.57;100516.16;8489801;33;20556;-71
2021/10/19 13:47:34;;;;;;;4.38;4.00;;;;;;;13.54;90.86;100521.84;8488234;33;20587;-73
2021/10/19 13:52:37;;;;;;;3.85;3.53;;;;;;;13.56;91.15;100511.75;8474153;33;20428;-73
2021/10/19 13:57:41;;;;;;;3.00;2.80;;;;;;;13.54;91.46;100502.94;8456972;33;20456;-72
2021/10/19 14:02:45;;;;;;;4.32;3.22;;;;;;;13.53;92.04;100494.00;8453791;33;20234;-72
2021/10/19 14:07:49;;;;;;;3.35;3.15;;;;;;;13.69;91.43;100485.34;8455995;33;20136;-72
2021/10/19 14:12:52;;;;;;;3.60;3.30;;;;;;;13.68;91.36;100486.31;8460434;33;22479;-72
2021/10/19 14:17:57;;;;;;;4.20;3.80;;;;;;;13.81;91.31;100477.94;8429098;33;21104;-72
2021/10/19 14:23:00;;;;;;;4.03;3.63;;;;;;;13.89;91.02;100483.50;8456899;33;20636;-76
2021/10/19 14:28:03;;;;;;;4.30;3.72;;;;;;;13.81;91.09;100473.41;8455703;33;20181;-73
2021/10/19 14:33:08;;;;;;;3.90;3.58;;;;;;;13.92;91.42;100465.13;8457014;33;20499;-74
2021/10/19 14:38:11;;;;;;;5.32;3.80;;;;;;;13.93;91.03;100461.47;8483075;33;20153;-73
2021/10/19 14:43:14;;;;;;;4.63;4.13;;;;;;;14.06;90.76;100457.59;8476544;33;20145;-73
2021/10/19 14:48:18;;;;;;;4.43;4.03;;;;;;;13.87;92.00;100450.38;8460429;33;22585;-74
2021/10/19 14:53:21;;;;;;;5.38;4.35;;;;;;;14.02;91.93;100453.50;8447482;33;20433;-73
2021/10/19 14:58:25;;;;;;;5.30;4.80;;;;;;;14.00;91.73;100442.81;8428125;33;20196;-74
2021/10/19 15:03:29;;;;;;;5.10;4.60;;;;;;;14.05;91.84;100445.94;8422591;34;20477;-74
2021/10/19 15:08:33;;;;;;;5.45;4.43;;;;;;;14.16;91.47;100437.66;8419287;34;21108;-73
2021/10/19 15:13:36;;;;;;;4.20;3.80;;;;;;;13.84;93.21;100439.88;8418321;34;20122;-73
2021/10/19 15:18:40;;;;;;;5.63;4.43;;;;;;;14.00;92.41;100439.28;8420571;34;20165;-73
2021/10/19 15:23:43;;;;;;;5.30;4.70;;;;;;;14.12;92.55;100430.00;8432670;34;20466;-73
2021/10/19 15:28:46;;;;;;;4.88;4.32;;;;;;;14.25;91.70;100422.41;8433487;34;20511;-73
2021/10/19 15:33:51;;;;;;;6.00;5.20;;;;;;;14.25;92.14;100425.13;8432984;34;20509;-73
2021/10/19 15:38:54;;;;;;;6.15;4.93;;;;;;;14.22;91.95;100428.13;8431467;34;20224;-73
2021/10/19 15:43:58;;;;;;;8.38;5.82;;;;;;;14.31;91.70;100427.22;8433672;34;20156;-73
2021/10/19 15:49:23;;;;;;;9.48;6.88;;;;;;;14.30;92.44;100414.72;8444626;34;20463;-73
2021/10/19 15:54:26;;;;;;;10.93;8.07;;;;;;;14.33;92.15;100413.59;8433121;34;20533;-72
2021/10/19 15:59:31;;;;;;;10.63;8.73;;;;;;;14.31;93.00;100415.56;8454317;33;20435;-71
2021/10/19 16:04:36;;;;;;;15.10;9.70;;;;;;;14.37;93.45;100404.16;8451986;33;20259;-72
2021/10/19 16:09:39;;;;;;;14.02;9.25;;;;;;;14.37;93.40;100404.16;8459849;33;20963;-72
2021/10/19 16:14:42;;;;;;;10.00;7.55;;;;;;;14.34;93.13;100390.97;8481224;33;20370;-73
2021/10/19 16:19:46;;;;;;;7.85;6.57;;;;;;;14.29;93.46;100398.66;8481939;33;22647;-72
2021/10/19 16:24:52;;;;;;;9.23;5.45;;;;;;;14.31;93.04;100392.09;8431602;33;21684;-72
2021/10/19 16:29:55;;;;;;;6.40;5.65;;;;;;;14.40;93.13;100387.72;8426217;34;20259;-72
2021/10/19 16:34:59;;;;;;;9.35;6.20;;;;;;;14.34;93.38;100389.13;8425729;34;20231;-73
2021/10/19 16:40:04;;;;;;;9.43;6.97;;;;;;;14.18;94.51;100390.72;8425701;34;21223;-73
2021/10/19 16:45:08;;;;;;;11.50;8.40;;;;;;;14.36;93.83;100383.56;8425496;34;20134;-73
2021/10/19 16:50:12;;;;;;;13.68;8.48;;;;;;;14.34;94.08;100391.81;8428102;34;20601;-73
2021/10/19 16:55:15;;;;;;;16.95;9.07;;;;;;;14.43;93.73;100391.97;8441363;33;20422;-73
2021/10/19 17:00:18;;;;;;;15.50;9.35;;;;;;;14.32;94.25;100398.38;8439840;33;20982;-73
2021/10/19 17:05:23;;;;;;;15.07;8.35;;;;;;;14.41;93.43;100391.25;8423830;33;20528;-73
2021/10/19 17:10:26;;;;;;;13.73;7.65;;;;;;;14.32;94.02;100403.78;8474579;33;20175;-73
2021/10/19 17:15:31;;;;;;;8.15;5.38;;;;;;;14.15;94.80;100402.69;8466402;33;20540;-72
2021/10/19 17:20:36;;;;;;;10.18;7.25;;;;;;;14.37;93.77;100386.13;8493600;33;20414;-73
2021/10/19 17:25:39;;;;;;;8.90;6.68;;;;;;;14.37;94.17;100382.53;8469536;33;20197;-74
2021/10/19 17:30:42;;;;;;;10.70;7.05;;;;;;;14.38;93.81;100387.84;8479264;33;20526;-74
2021/10/19 17:35:47;;;;;;;9.18;6.15;;;;;;;14.42;93.14;100401.91;8477166;33;21027;-73
2021/10/19 17:40:50;;;;;;;10.93;7.00;;;;;;;14.29;93.91;100394.13;8458661;33;20458;-72
2021/10/19 17:45:53;;;;;;;9.90;6.65;;;;;;;14.38;93.41;100395.94;8451820;33;20427;-73
2021/10/19 17:50:58;;;;;;;6.00;4.40;;;;;;;14.23;94.02;100399.25;8451547;33;20526;-73
2021/10/19 17:56:01;;;;;;;10.68;6.82;;;;;;;14.36;93.48;100388.97;8444658;33;20204;-73
2021/10/19 18:01:05;;;;;;;10.70;7.45;;;;;;;14.36;93.66;100378.16;8448178;33;20242;-72
2021/10/19 18:06:09;;;;;;;11.88;5.85;;;;;;;14.24;93.94;100391.00;8450255;33;20245;-73
2021/10/19 18:11:14;;;;;;;8.48;6.55;;;;;;;14.37;93.97;100391.53;8439784;33;20911;-73
2021/10/19 18:16:17;;;;;;;10.63;7.75;;;;;;;14.22;94.53;100402.97;8425550;33;20502;-74
2021/10/19 18:21:25;;;;;;;10.15;6.90;;;;;;;14.25;94.24;100408.91;8434810;33;21747;-74
2021/10/19 18:26:29;;;;;;;10.73;6.53;;;;;;;14.24;94.16;100396.41;8429210;33;20405;-73
2021/10/19 18:31:32;;;;;;;8.65;6.53;;;;;;;14.25;93.94;100398.09;8456319;33;20462;-73
2021/10/19 18:36:37;;;;;;;8.43;6.32;;;;;;;14.35;93.00;100398.94;8454990;33;20416;-73
2021/10/19 18:41:40;;;;;;;11.55;7.25;;;;;;;14.20;94.42;100381.47;8456078;33;20125;-74
2021/10/19 18:46:43;;;;;;;10.07;6.82;;;;;;;14.50;92.83;100377.69;8458286;33;20323;-73
2021/10/19 18:51:48;;;;;;;8.20;6.57;;;;;;;14.43;92.79;100373.06;8448705;33;20470;-72
2021/10/19 18:56:51;;;;;;;8.38;6.00;;;;;;;14.25;93.02;100383.75;8441089;33;20156;-72
2021/10/19 19:01:55;;;;;;;12.23;9.30;;;;;;;14.50;91.22;100352.50;8442729;33;20193;-72
2021/10/19 19:07:00;;;;;;;9.15;6.43;;;;;;;14.36;91.61;100340.31;8442677;33;20450;-72
2021/10/19 19:12:04;;;;;;;10.13;6.95;;;;;;;14.19;92.17;100324.91;8441234;33;20428;-72
2021/10/19 19:17:07;;;;;;;8.98;6.50;;;;;;;14.26;90.90;100343.09;8432803;33;20423;-72
2021/10/19 19:22:14;;;;;;;10.05;7.25;;;;;;;14.30;90.73;100325.56;8445361;33;20442;-72
2021/10/19 19:27:17;;;;;;;9.27;6.28;;;;;;;14.24;90.45;100326.16;8469064;33;20153;-73
2021/10/19 19:32:20;;;;;;;9.05;6.53;;;;;;;14.24;90.11;100336.97;8476454;33;20144;-73
2021/10/19 19:37:26;;;;;;;10.57;7.28;;;;;;;14.29;89.86;100318.47;8457686;33;20195;-73
2021/10/19 19:42:29;;;;;;;8.23;5.55;;;;;;;14.05;90.97;100319.00;8441358;33;20576;-73
2021/10/19 19:47:32;;;;;;;9.82;6.68;;;;;;;14.07;90.46;100302.63;8450579;33;20618;-72
2021/10/19 19:52:37;;;;;;;9.05;5.78;;;;;;;14.11;90.08;100307.59;8446533;33;20555;-73
2021/10/19 19:57:40;;;;;;;7.20;5.68;;;;;;;14.30;88.57;100317.47;8427148;34;20439;-73
2021/10/19 20:02:44;;;;;;;13.18;6.47;;;;;;;14.25;88.73;100303.53;8430433;34;20360;-73
2021/10/19 20:07:49;;;;;;;7.43;5.88;;;;;;;14.16;89.04;100301.75;8434140;34;20449;-73
2021/10/19 20:12:52;;;;;;;10.77;6.30;;;;;;;14.05;88.68;100304.66;8469277;33;21102;-73
2021/10/19 20:17:58;;;;;;;8.10;5.90;;;;;;;14.11;87.94;100312.16;8466988;33;20248;-73
2021/10/19 20:23:05;;;;;;;9.38;6.10;;;;;;;14.02;88.37;100313.06;8459517;33;20423;-73
2021/10/19 20:28:10;;;;;;;11.73;7.78;;;;;;;14.18;87.03;100297.06;8452318;33;20150;-73
2021/10/19 20:33:13;;;;;;;14.98;9.02;;;;;;;14.09;87.52;100293.38;8454510;33;20153;-72
2021/10/19 20:38:17;;;;;;;9.63;6.85;;;;;;;14.00;87.33;100288.03;8472514;33;20148;-72
2021/10/19 20:43:22;;;;;;;10.52;7.53;;;;;;;13.93;87.53;100283.25;8489325;33;20503;-73
2021/10/19 20:48:26;;;;;;;13.75;7.65;;;;;;;13.83;87.81;100268.91;8504104;33;20239;-73
2021/10/19 20:53:30;;;;;;;8.80;5.20;;;;;;;13.91;86.86;100255.53;8506528;33;20249;-73
2021/10/19 20:58:33;;;;;;;8.73;5.47;;;;;;;13.86;86.96;100274.03;8495024;33;20432;-73
2021/10/19 21:03:37;;;;;;;8.85;6.50;;;;;;;13.99;86.35;100272.81;8493819;33;20403;-73
2021/10/19 21:08:41;;;;;;;8.95;5.78;;;;;;;13.87;86.92;100274.88;8485034;33;20162;-73
2021/10/19 21:13:44;;;;;;;9.18;6.53;;;;;;;13.93;86.24;100268.88;8449919;34;20464;-74
2021/10/19 21:18:47;;;;;;;10.63;6.78;;;;;;;13.99;85.36;100289.91;8448507;34;22000;-74
2021/10/19 21:23:52;;;;;;;9.10;7.00;;;;;;;14.03;85.16;100247.22;8423447;34;20428;-74
2021/10/19 21:28:55;;;;;;;9.68;7.18;;;;;;;13.98;85.19;100247.66;8423202;33;20201;-74
2021/10/19 21:33:58;;;;;;;12.45;8.60;;;;;;;14.02;84.55;100256.34;8454099;33;20611;-74
2021/10/19 21:39:03;;;;;;;11.40;7.82;;;;;;;13.98;84.85;100242.25;8448077;33;20356;-74
2021/10/19 21:44:07;;;;;;;11.18;8.57;;;;;;;14.02;84.25;100232.03;8464394;33;21146;-74
2021/10/19 21:49:10;;;;;;;10.93;8.57;;;;;;;14.05;83.42;100229.88;8473842;33;20855;-74
2021/10/19 21:54:14;;;;;;;13.35;8.30;;;;;;;14.17;82.79;100222.41;8486648;33;20156;-74
2021/10/19 21:59:19;;;;;;;13.98;8.65;;;;;;;14.08;83.58;100221.47;8507589;33;20514;-74
2021/10/19 22:04:22;;;;;;;10.68;7.85;;;;;;;14.08;82.75;100217.94;8508624;33;20184;-74
2021/10/19 22:09:26;;;;;;;8.20;6.47;;;;;;;14.08;81.82;100202.56;8509068;33;20236;-74
2021/10/19 22:14:29;;;;;;;7.77;6.13;;;;;;;13.88;82.38;100209.94;8508995;33;21213;-74
2021/10/19 22:19:32;;;;;;;11.02;6.80;;;;;;;14.01;81.78;100196.06;8508828;33;20425;-74
2021/10/19 22:29:59;;;;;;;9.63;7.05;;;;;;;14.00;81.84;100190.81;8505314;33;20418;-74
2021/10/19 22:35:02;;;;;;;12.43;7.95;;;;;;;13.96;81.53;100184.88;8507136;33;20184;-74
2021/10/19 22:40:10;;;;;;;9.95;7.10;;;;;;;13.99;81.27;100181.88;8501991;33;20338;-75
2021/10/19 22:45:13;;;;;;;12.20;6.97;;;;;;;13.88;81.66;100174.00;8502654;33;20184;-74
2021/10/19 22:50:17;;;;;;;10.55;7.63;;;;;;;13.84;81.17;100167.19;8502143;33;20475;-75
2021/10/19 22:55:22;;;;;;;9.88;7.40;;;;;;;13.82;80.81;100152.97;8502282;33;20184;-74
2021/10/19 23:00:25;;;;;;;12.38;7.18;;;;;;;13.83;80.56;100155.53;8497889;33;21293;-74
2021/10/19 23:05:28;;;;;;;12.95;7.75;;;;;;;13.74;80.49;100160.97;8488356;33;20488;-74
2021/10/19 23:10:34;;;;;;;10.40;6.53;;;;;;;13.84;80.05;100143.72;8487928;33;20422;-75
2021/10/19 23:15:39;;;;;;;9.38;5.95;;;;;;;13.76;79.37;100137.38;8488089;33;21246;-75
2021/10/19 23:20:44;;;;;;;10.35;6.70;;;;;;;13.92;78.65;100135.72;8487060;33;20872;-75